createdAt,value
2023-01-25T00:01:07.572Z,19.30
2023-01-25T00:03:34.538Z,20.92
2023-01-25T00:06:02.060Z,20.95
2023-01-25T00:08:28.922Z,22.05
2023-01-25T00:10:57.652Z,20.33
2023-01-25T00:13:25.268Z,20.85
2023-01-25T00:15:51.986Z,21.08
2023-01-25T00:18:18.764Z,21.13
2023-01-25T00:20:45.523Z,20.98
2023-01-25T00:23:12.244Z,20.30
2023-01-25T00:25:39.093Z,19.75
2023-01-25T00:28:05.964Z,21.23
2023-01-25T00:30:32.721Z,20.63
2023-01-25T00:33:16.586Z,20.38
2023-01-25T00:35:45.085Z,19.33
2023-01-25T00:38:35.118Z,18.02
2023-01-25T00:41:02.019Z,18.58
2023-01-25T00:43:28.805Z,20.42
2023-01-25T00:46:02.154Z,19.52
2023-01-25T00:48:30.149Z,17.48
2023-01-25T00:51:01.885Z,18.85
2023-01-25T00:53:28.907Z,16.95
2023-01-25T00:55:55.733Z,19.33
2023-01-25T00:58:22.477Z,19.08
2023-01-25T01:00:49.286Z,20.67
2023-01-25T01:03:16.804Z,20.63
2023-01-25T01:05:45.885Z,20.45
2023-01-25T01:08:14.406Z,20.88
2023-01-25T01:10:41.544Z,18.65
2023-01-25T01:13:09.026Z,19.88
2023-01-25T01:15:38.817Z,19.45
2023-01-25T01:18:05.650Z,19.15
2023-01-25T01:20:32.389Z,20.70
2023-01-25T01:22:59.316Z,19.67
2023-01-25T01:25:26.130Z,18.92
2023-01-25T01:27:52.905Z,19.75
2023-01-25T01:30:19.774Z,19.95
2023-01-25T01:32:46.692Z,19.88
2023-01-25T01:35:13.804Z,19.23
2023-01-25T01:37:43.303Z,18.95
2023-01-25T01:40:15.666Z,19.02
2023-01-25T01:43:03.477Z,18.55
2023-01-25T01:45:47.846Z,19.35
2023-01-25T01:48:57.420Z,18.35
2023-01-25T01:51:25.014Z,19.27
2023-01-25T01:54:08.660Z,19.23
2023-01-25T01:59:07.836Z,19.65
2023-01-25T02:01:35.610Z,19.52
2023-01-25T02:04:06.239Z,22.65
2023-01-25T02:06:50.711Z,20.55
2023-01-25T02:09:21.470Z,22.20
2023-01-25T02:11:51.016Z,21.02
2023-01-25T02:14:18.867Z,21.85
2023-01-25T02:16:46.371Z,21.90
2023-01-25T02:19:30.723Z,20.65
2023-01-25T02:22:00.289Z,20.83
2023-01-25T02:24:33.198Z,21.83
2023-01-25T02:27:00.162Z,21.23
2023-01-25T02:29:29.545Z,20.73
2023-01-25T02:32:06.609Z,21.08
2023-01-25T02:34:33.495Z,22.55
2023-01-25T02:37:00.913Z,21.85
2023-01-25T02:39:28.377Z,21.25
2023-01-25T02:41:55.191Z,20.30
2023-01-25T02:44:28.123Z,21.40
2023-01-25T02:46:56.367Z,22.15
2023-01-25T02:49:23.514Z,21.15
2023-01-25T02:51:55.858Z,20.48
2023-01-25T02:54:23.577Z,20.38
2023-01-25T02:56:50.920Z,21.70
2023-01-25T02:59:19.192Z,19.58
2023-01-25T03:01:51.159Z,20.67
2023-01-25T03:04:18.208Z,20.63
2023-01-25T03:06:45.010Z,20.35
2023-01-25T03:09:12.911Z,19.90
2023-01-25T03:11:44.494Z,20.10
2023-01-25T03:14:11.596Z,19.80
2023-01-25T03:16:39.081Z,19.02
2023-01-25T03:19:06.527Z,18.95
2023-01-25T03:21:33.411Z,19.63
2023-01-25T03:24:01.666Z,18.58
2023-01-25T03:26:55.746Z,20.85
2023-01-25T03:29:27.717Z,20.38
2023-01-25T03:31:54.541Z,20.48
2023-01-25T03:34:21.552Z,18.85
2023-01-25T03:36:48.407Z,18.73
2023-01-25T03:39:16.003Z,21.42
2023-01-25T03:41:43.605Z,19.20
2023-01-25T03:44:12.870Z,20.08
2023-01-25T03:46:42.367Z,18.58
2023-01-25T03:49:09.836Z,19.73
2023-01-25T03:51:36.910Z,18.95
2023-01-25T03:54:04.687Z,19.15
2023-01-25T03:56:34.814Z,18.27
2023-01-25T03:59:08.285Z,18.33
2023-01-25T04:01:36.179Z,17.20
2023-01-25T04:04:03.393Z,17.27
2023-01-25T04:06:30.375Z,19.35
2023-01-25T04:08:57.674Z,18.23
2023-01-25T04:11:26.385Z,17.60
2023-01-25T04:13:53.761Z,17.90
2023-01-25T04:16:22.958Z,17.83
2023-01-25T04:19:12.652Z,19.50
2023-01-25T04:21:40.327Z,18.80
2023-01-25T04:24:08.004Z,19.80
2023-01-25T04:26:38.050Z,18.65
2023-01-25T04:29:06.181Z,21.05
2023-01-25T04:31:33.704Z,21.77
2023-01-25T04:34:01.258Z,21.58
2023-01-25T04:36:28.660Z,21.48
2023-01-25T04:38:55.913Z,20.45
2023-01-25T04:41:26.891Z,21.45
2023-01-25T04:43:54.751Z,21.23
2023-01-25T04:46:21.997Z,22.17
2023-01-25T04:48:51.265Z,20.33
2023-01-25T04:51:18.458Z,19.95
2023-01-25T04:53:45.628Z,20.92
2023-01-25T04:56:12.764Z,20.60
2023-01-25T04:58:53.653Z,21.48
2023-01-25T05:01:22.644Z,20.55
2023-01-25T05:03:51.203Z,20.92
2023-01-25T05:06:32.947Z,19.15
2023-01-25T05:08:59.773Z,19.48
2023-01-25T05:11:27.065Z,18.65
2023-01-25T05:14:04.618Z,17.15
2023-01-25T05:16:33.245Z,18.85
2023-01-25T05:19:00.848Z,19.27
2023-01-25T05:21:59.344Z,19.58
2023-01-25T05:24:41.694Z,18.48
2023-01-25T05:27:11.976Z,18.80
2023-01-25T05:29:59.077Z,17.38
2023-01-25T05:32:46.233Z,18.77
2023-01-25T05:35:13.916Z,19.58
2023-01-25T05:37:40.709Z,20.15
2023-01-25T05:40:14.380Z,19.10
2023-01-25T05:42:41.911Z,19.60
2023-01-25T05:45:15.892Z,20.27
2023-01-25T05:47:45.168Z,19.80
2023-01-25T05:50:12.136Z,20.45
2023-01-25T05:52:58.004Z,19.25
2023-01-25T05:55:24.857Z,20.88
2023-01-25T05:57:56.696Z,18.40
2023-01-25T06:00:24.116Z,19.13
2023-01-25T06:02:51.108Z,18.80
2023-01-25T06:05:22.566Z,18.42
2023-01-25T06:07:49.698Z,19.17
2023-01-25T06:10:18.263Z,17.65
2023-01-25T06:12:47.359Z,17.88
2023-01-25T06:15:14.261Z,19.40
2023-01-25T06:17:41.400Z,19.27
2023-01-25T06:20:09.008Z,19.27
2023-01-25T06:22:36.141Z,17.88
2023-01-25T06:25:02.944Z,17.55
2023-01-25T06:27:30.555Z,17.05
2023-01-25T06:29:57.282Z,16.63
2023-01-25T06:32:26.028Z,17.52
2023-01-25T06:34:53.327Z,17.92
2023-01-25T06:37:23.029Z,16.00
2023-01-25T06:39:50.274Z,18.02
2023-01-25T06:42:17.014Z,17.58
2023-01-25T06:44:43.787Z,17.45
2023-01-25T06:47:11.309Z,16.67
2023-01-25T06:49:38.258Z,17.17
2023-01-25T06:52:05.187Z,14.70
2023-01-25T06:54:31.970Z,15.13
2023-01-25T06:56:58.764Z,14.93
2023-01-25T06:59:25.508Z,15.98
2023-01-25T07:01:52.364Z,15.75
2023-01-25T07:04:19.111Z,14.25
2023-01-25T07:06:45.882Z,14.93
2023-01-25T07:09:14.720Z,15.60
2023-01-25T07:11:41.545Z,14.30
2023-01-25T07:14:08.277Z,15.13
2023-01-25T07:16:38.713Z,14.10
2023-01-25T07:19:06.647Z,14.73
2023-01-25T07:21:33.797Z,13.38
2023-01-25T07:24:02.539Z,13.48
2023-01-25T07:26:29.977Z,14.90
2023-01-25T07:28:57.852Z,14.98
2023-01-25T07:31:26.173Z,13.10
2023-01-25T07:33:54.926Z,14.70
2023-01-25T07:36:21.916Z,14.02
2023-01-25T07:38:49.003Z,14.70
2023-01-25T07:41:16.557Z,14.38
2023-01-25T07:43:43.591Z,13.80
2023-01-25T07:46:12.791Z,14.00
2023-01-25T07:48:40.925Z,14.23
2023-01-25T07:51:16.541Z,13.38
2023-01-25T07:53:44.122Z,14.25
2023-01-25T07:56:12.576Z,14.77
2023-01-25T07:58:40.189Z,14.43
2023-01-25T08:01:12.758Z,14.57
2023-01-25T08:03:39.515Z,13.27
2023-01-25T08:06:07.425Z,13.00
2023-01-25T08:08:36.664Z,14.30
2023-01-25T08:11:14.126Z,14.75
2023-01-25T08:13:41.832Z,13.38
2023-01-25T08:16:09.094Z,14.70
2023-01-25T08:18:36.794Z,13.63
2023-01-25T08:21:03.977Z,14.40
2023-01-25T08:23:30.777Z,13.25
2023-01-25T08:26:02.855Z,13.90
2023-01-25T08:28:29.597Z,14.85
2023-01-25T08:31:04.582Z,14.07
2023-01-25T08:33:32.062Z,13.48
2023-01-25T08:35:58.996Z,16.55
2023-01-25T08:38:26.050Z,15.50
2023-01-25T08:40:52.856Z,15.77
2023-01-25T08:43:19.920Z,15.48
2023-01-25T08:45:47.919Z,14.65
2023-01-25T08:48:16.668Z,15.13
2023-01-25T08:50:48.036Z,15.60
2023-01-25T08:53:15.054Z,15.27
2023-01-25T08:55:43.119Z,14.32
2023-01-25T08:58:12.430Z,15.32
2023-01-25T09:00:40.119Z,15.40
2023-01-25T09:03:08.321Z,14.77
2023-01-25T09:05:39.460Z,14.18
2023-01-25T09:08:10.298Z,13.20
2023-01-25T09:10:37.088Z,13.60
2023-01-25T09:13:03.897Z,15.20
2023-01-25T09:15:30.710Z,12.70
2023-01-25T09:17:58.214Z,14.18
2023-01-25T09:20:25.290Z,14.40
2023-01-25T09:22:56.149Z,15.88
2023-01-25T09:25:23.030Z,13.70
2023-01-25T09:27:51.347Z,14.93
2023-01-25T09:30:19.308Z,14.38
2023-01-25T09:32:51.352Z,13.60
2023-01-25T09:35:18.384Z,13.85
2023-01-25T09:37:45.357Z,13.63
2023-01-25T09:40:23.661Z,13.73
2023-01-25T09:43:03.364Z,15.10
2023-01-25T09:45:34.693Z,14.15
2023-01-25T09:48:06.598Z,14.82
2023-01-25T09:50:36.832Z,15.32
2023-01-25T09:53:38.607Z,15.10
2023-01-25T09:56:18.097Z,15.57
2023-01-25T09:58:48.760Z,14.45
2023-01-25T10:01:38.741Z,14.50
2023-01-25T10:04:22.608Z,16.52
2023-01-25T10:09:33.241Z,15.18
2023-01-25T10:12:18.817Z,15.15
2023-01-25T10:14:45.653Z,14.80
2023-01-25T10:17:16.558Z,14.15
2023-01-25T10:20:30.260Z,15.43
2023-01-25T10:23:22.145Z,15.55
2023-01-25T10:25:59.467Z,16.80
2023-01-25T10:28:41.812Z,15.88
2023-01-25T10:31:19.623Z,14.93
2023-01-25T10:33:48.606Z,13.43
2023-01-25T10:36:20.539Z,12.73
2023-01-25T10:38:57.540Z,14.73
2023-01-25T10:41:36.487Z,14.88
2023-01-25T10:44:21.834Z,15.40
2023-01-25T10:47:27.658Z,15.00
2023-01-25T10:49:59.026Z,13.77
2023-01-25T10:52:27.311Z,13.43
2023-01-25T10:55:14.468Z,14.45
2023-01-25T10:57:48.057Z,13.73
2023-01-25T11:00:39.858Z,14.98
2023-01-25T11:03:19.267Z,13.48
2023-01-25T11:05:55.075Z,12.80
2023-01-25T11:08:25.721Z,13.05
2023-01-25T11:10:53.772Z,14.15
2023-01-25T11:13:24.645Z,14.35
2023-01-25T11:16:27.734Z,12.68
2023-01-25T11:18:56.774Z,12.93
2023-01-25T11:21:26.931Z,13.00
2023-01-25T11:24:09.322Z,12.27
2023-01-25T11:26:38.496Z,13.57
2023-01-25T11:29:17.626Z,13.30
2023-01-25T11:31:57.804Z,13.27
2023-01-25T11:34:29.375Z,12.75
2023-01-25T11:37:20.515Z,13.50
2023-01-25T11:40:15.941Z,13.82
2023-01-25T11:42:58.558Z,12.75
2023-01-25T11:45:30.968Z,12.27
2023-01-25T11:48:32.270Z,12.40
2023-01-25T11:51:08.956Z,13.45
2023-01-25T11:53:35.726Z,14.32
2023-01-25T11:56:23.670Z,13.07
2023-01-25T11:59:14.470Z,13.60
2023-01-25T12:02:08.585Z,12.90
2023-01-25T12:04:47.172Z,13.77
2023-01-25T12:07:41.148Z,13.50
2023-01-25T12:10:37.302Z,12.98
2023-01-25T12:13:39.425Z,12.65
2023-01-25T12:16:22.288Z,12.13
2023-01-25T12:19:07.844Z,12.73
2023-01-25T12:21:55.854Z,14.07
2023-01-25T12:24:33.396Z,13.85
2023-01-25T12:27:20.228Z,14.02
2023-01-25T12:29:52.554Z,13.13
2023-01-25T12:32:42.690Z,14.63
2023-01-25T12:35:27.515Z,14.45
2023-01-25T12:38:04.614Z,13.40
2023-01-25T12:40:43.046Z,14.43
2023-01-25T12:43:26.531Z,14.45
2023-01-25T12:45:55.636Z,14.18
2023-01-25T12:48:32.710Z,13.70
2023-01-25T12:51:00.553Z,13.55
2023-01-25T12:53:48.370Z,14.30
2023-01-25T12:56:44.099Z,15.98
2023-01-25T12:59:37.974Z,15.68
2023-01-25T13:05:37.193Z,15.88
2023-01-25T13:08:23.171Z,16.00
2023-01-25T13:11:12.844Z,15.40
2023-01-25T13:13:40.085Z,16.27
2023-01-25T13:16:41.404Z,16.50
2023-01-25T13:19:38.335Z,16.67
2023-01-25T13:22:06.554Z,16.58
2023-01-25T13:24:35.549Z,16.20
2023-01-25T13:27:28.306Z,16.17
2023-01-25T13:30:19.396Z,16.77
2023-01-25T13:32:52.327Z,17.90
2023-01-25T13:35:32.813Z,16.95
2023-01-25T13:38:18.379Z,15.82
2023-01-25T13:40:45.234Z,17.17
2023-01-25T13:43:13.204Z,17.15
2023-01-25T13:45:42.239Z,17.67
2023-01-25T13:48:18.966Z,16.48
2023-01-25T13:50:59.272Z,16.20
2023-01-25T13:53:33.154Z,15.80
2023-01-25T13:56:00.373Z,17.45
2023-01-25T13:58:30.139Z,17.52
2023-01-25T14:00:56.974Z,18.23
2023-01-25T14:03:29.900Z,17.50
2023-01-25T14:05:59.356Z,17.20
2023-01-25T14:08:28.147Z,16.95
2023-01-25T14:10:56.297Z,18.02
2023-01-25T14:13:23.557Z,17.48
2023-01-25T14:15:58.710Z,18.30
2023-01-25T14:18:32.352Z,16.38
2023-01-25T14:21:21.060Z,18.70
2023-01-25T14:23:49.271Z,18.20
2023-01-25T14:26:25.169Z,18.70
2023-01-25T14:29:01.357Z,16.98
2023-01-25T14:31:34.309Z,17.60
2023-01-25T14:34:04.360Z,19.45
2023-01-25T14:36:34.265Z,19.42
2023-01-25T14:39:03.790Z,17.55
2023-01-25T14:41:36.134Z,18.15
2023-01-25T14:44:06.009Z,19.92
2023-01-25T14:46:37.384Z,18.33
2023-01-25T14:49:13.298Z,18.30
2023-01-25T14:51:48.462Z,18.15
2023-01-25T14:54:28.342Z,18.30
2023-01-25T14:57:06.855Z,18.15
2023-01-25T14:59:34.238Z,17.95
2023-01-25T15:02:23.092Z,17.55
2023-01-25T15:05:17.891Z,18.73
2023-01-25T15:07:50.664Z,17.92
2023-01-25T15:10:22.516Z,18.75
2023-01-25T15:13:11.679Z,18.63
2023-01-25T15:16:03.614Z,17.90
2023-01-25T15:18:46.058Z,20.05
2023-01-25T15:21:15.976Z,19.42
2023-01-25T15:23:46.015Z,18.60
2023-01-25T15:26:24.024Z,18.23
2023-01-25T15:28:53.572Z,18.05
2023-01-25T15:31:30.178Z,18.40
2023-01-25T15:33:58.908Z,19.02
2023-01-25T15:36:32.338Z,18.85
2023-01-25T15:39:00.075Z,17.95
2023-01-25T15:41:27.540Z,17.75
2023-01-25T15:43:54.730Z,18.73
2023-01-25T15:46:27.927Z,16.77
2023-01-25T15:48:55.205Z,17.20
2023-01-25T15:51:23.405Z,17.83
2023-01-25T15:53:50.338Z,18.92
2023-01-25T15:56:18.575Z,17.23
2023-01-25T15:58:50.399Z,16.10
2023-01-25T16:01:19.095Z,16.30
2023-01-25T16:03:46.034Z,16.80
2023-01-25T16:06:25.211Z,17.15
2023-01-25T16:08:52.267Z,15.65
2023-01-25T16:11:19.091Z,15.20
2023-01-25T16:13:45.991Z,16.95
2023-01-25T16:16:21.036Z,18.45
2023-01-25T16:18:51.264Z,16.02
2023-01-25T16:21:20.453Z,16.95
2023-01-25T16:23:47.415Z,16.40
2023-01-25T16:26:25.931Z,16.38
2023-01-25T16:28:53.188Z,16.50
2023-01-25T16:31:31.836Z,16.52
2023-01-25T16:34:00.371Z,15.25
2023-01-25T16:36:27.282Z,16.48
2023-01-25T16:38:54.155Z,17.92
2023-01-25T16:41:20.966Z,16.40
2023-01-25T16:43:49.232Z,16.67
2023-01-25T16:46:21.628Z,15.18
2023-01-25T16:48:51.061Z,15.97
2023-01-25T16:51:22.258Z,16.65
2023-01-25T16:53:50.977Z,15.50
2023-01-25T16:56:23.186Z,15.15
2023-01-25T16:58:50.941Z,15.77
2023-01-25T17:01:19.643Z,15.02
2023-01-25T17:03:47.166Z,16.38
2023-01-25T17:06:21.155Z,15.93
2023-01-25T17:08:48.826Z,15.20
2023-01-25T17:11:18.802Z,15.20
2023-01-25T17:13:53.483Z,16.13
2023-01-25T17:16:22.084Z,17.00
2023-01-25T17:18:53.478Z,16.30
2023-01-25T17:21:21.195Z,16.10
2023-01-25T17:23:48.524Z,15.43
2023-01-25T17:26:16.982Z,16.10
2023-01-25T17:28:44.366Z,16.40
2023-01-25T17:31:32.284Z,16.55
2023-01-25T17:34:10.916Z,16.27
2023-01-25T17:36:37.694Z,15.18
2023-01-25T17:39:06.781Z,14.50
2023-01-25T17:41:33.863Z,16.25
2023-01-25T17:44:00.619Z,15.50
2023-01-25T17:46:30.175Z,15.30
2023-01-25T17:48:59.193Z,16.80
2023-01-25T17:51:26.585Z,17.13
2023-01-25T17:53:54.170Z,15.88
2023-01-25T17:56:21.291Z,15.98
2023-01-25T17:58:48.508Z,14.95
2023-01-25T18:01:18.609Z,16.27
2023-01-25T18:03:46.954Z,16.45
2023-01-25T18:06:16.886Z,15.82
2023-01-25T18:08:48.304Z,16.98
2023-01-25T18:11:19.072Z,15.63
2023-01-25T18:13:52.481Z,17.20
2023-01-25T18:18:50.650Z,16.75
2023-01-25T18:21:26.282Z,15.73
2023-01-25T18:24:16.263Z,15.63
2023-01-25T18:26:43.068Z,14.23
2023-01-25T18:29:09.854Z,15.90
2023-01-25T18:31:37.110Z,15.48
2023-01-25T18:34:04.162Z,16.50
2023-01-25T18:36:31.118Z,18.02
2023-01-25T18:39:01.527Z,16.52
2023-01-25T18:41:28.433Z,17.77
2023-01-25T18:43:56.772Z,19.08
2023-01-25T18:46:23.667Z,19.00
2023-01-25T18:48:51.235Z,20.63
2023-01-25T18:51:18.543Z,21.23
2023-01-25T18:53:47.794Z,22.10
2023-01-25T18:56:17.385Z,22.83
2023-01-25T18:58:44.458Z,22.02
2023-01-25T19:01:13.176Z,21.83
2023-01-25T19:03:40.103Z,22.70
2023-01-25T19:06:07.086Z,21.10
2023-01-25T19:08:35.654Z,21.92
2023-01-25T19:11:06.144Z,21.77
2023-01-25T19:13:40.062Z,21.42
2023-01-25T19:16:13.885Z,19.42
2023-01-25T19:18:46.411Z,21.42
2023-01-25T19:21:15.458Z,21.13
2023-01-25T19:23:42.783Z,21.05
2023-01-25T19:26:12.590Z,22.75
2023-01-25T19:28:39.770Z,20.42
2023-01-25T19:31:18.778Z,18.35
2023-01-25T19:33:46.004Z,20.63
2023-01-25T19:36:19.334Z,17.75
2023-01-25T19:41:19.509Z,16.92
2023-01-25T19:43:46.646Z,16.00
2023-01-25T19:46:18.982Z,18.15
2023-01-25T19:48:49.839Z,17.63
2023-01-25T19:51:22.848Z,16.45
2023-01-25T19:53:59.014Z,17.70
2023-01-25T19:56:30.352Z,17.30
2023-01-25T19:58:57.584Z,15.68
2023-01-25T20:01:29.357Z,16.67
2023-01-25T20:04:00.685Z,16.23
2023-01-25T20:06:28.011Z,17.25
2023-01-25T20:08:55.115Z,17.92
2023-01-25T20:11:27.503Z,17.77
2023-01-25T20:13:57.142Z,15.73
2023-01-25T20:16:25.414Z,18.45
2023-01-25T20:18:52.238Z,19.30
2023-01-25T20:21:21.458Z,17.77
2023-01-25T20:23:51.581Z,18.55
2023-01-25T20:26:23.323Z,15.48
2023-01-25T20:28:52.515Z,15.50
2023-01-25T20:31:25.304Z,18.27
2023-01-25T20:33:54.489Z,16.83
2023-01-25T20:36:21.399Z,16.63
2023-01-25T20:38:48.631Z,17.67
2023-01-25T20:41:17.922Z,17.70
2023-01-25T20:43:49.129Z,18.52
2023-01-25T20:46:16.850Z,17.35
2023-01-25T20:48:44.441Z,17.17
2023-01-25T20:51:14.059Z,17.60
2023-01-25T20:53:42.249Z,16.67
2023-01-25T20:56:10.722Z,18.38
2023-01-25T20:58:37.915Z,18.15
2023-01-25T21:01:11.970Z,17.10
2023-01-25T21:03:38.740Z,16.83
2023-01-25T21:06:07.273Z,17.95
2023-01-25T21:08:34.087Z,16.95
2023-01-25T21:11:01.206Z,17.98
2023-01-25T21:13:29.436Z,18.00
2023-01-25T21:16:03.799Z,18.40
2023-01-25T21:18:52.067Z,16.80
2023-01-25T21:21:32.696Z,17.58
2023-01-25T21:24:02.531Z,18.48
2023-01-25T21:26:32.105Z,16.70
2023-01-25T21:29:00.755Z,16.38
2023-01-25T21:31:32.805Z,16.88
2023-01-25T21:34:00.617Z,16.27
2023-01-25T21:36:27.896Z,14.65
2023-01-25T21:38:56.561Z,15.77
2023-01-25T21:41:25.761Z,15.50
2023-01-25T21:44:12.866Z,14.88
2023-01-25T21:46:40.544Z,16.45
2023-01-25T21:49:28.127Z,15.55
2023-01-25T21:52:02.530Z,13.65
2023-01-25T21:54:39.503Z,14.65
2023-01-25T21:57:16.413Z,15.25
2023-01-25T21:59:43.272Z,14.52
2023-01-25T22:02:16.930Z,13.93
2023-01-25T22:04:45.240Z,17.00
2023-01-25T22:07:12.618Z,15.50
2023-01-25T22:09:39.573Z,14.95
2023-01-25T22:12:06.675Z,15.98
2023-01-25T22:14:33.579Z,15.93
2023-01-25T22:17:00.597Z,14.73
2023-01-25T22:19:27.439Z,13.60
2023-01-25T22:21:54.212Z,14.40
2023-01-25T22:24:22.174Z,14.07
2023-01-25T22:26:48.976Z,11.95
2023-01-25T22:29:16.192Z,15.10
2023-01-25T22:31:44.088Z,14.23
2023-01-25T22:34:11.225Z,13.85
2023-01-25T22:36:38.434Z,12.93
2023-01-25T22:39:05.492Z,12.93
2023-01-25T22:41:36.118Z,13.77
2023-01-25T22:44:02.992Z,13.90
2023-01-25T22:46:30.321Z,11.15
2023-01-25T22:48:58.866Z,10.90
2023-01-25T22:51:27.688Z,10.23
2023-01-25T22:53:55.839Z,11.23
2023-01-25T22:56:32.060Z,12.30
2023-01-25T22:58:59.371Z,11.18
2023-01-25T23:01:29.485Z,10.68
2023-01-25T23:03:57.207Z,11.55
2023-01-25T23:06:26.804Z,11.70
2023-01-25T23:09:03.324Z,12.07
2023-01-25T23:11:35.624Z,11.63
2023-01-25T23:14:25.513Z,11.60
2023-01-25T23:16:52.561Z,11.80
2023-01-25T23:19:19.467Z,12.35
2023-01-25T23:21:46.223Z,13.18
2023-01-25T23:24:13.168Z,10.95
2023-01-25T23:26:46.350Z,11.20
2023-01-25T23:31:40.536Z,11.18
2023-01-25T23:34:08.015Z,13.70
2023-01-25T23:36:41.545Z,12.98
2023-01-25T23:39:11.221Z,12.00
2023-01-25T23:41:37.994Z,12.05
2023-01-25T23:44:05.017Z,12.27
2023-01-25T23:46:31.831Z,11.85
2023-01-25T23:48:58.629Z,11.88
2023-01-25T23:51:25.377Z,12.15
2023-01-25T23:53:53.548Z,10.93
2023-01-25T23:56:22.416Z,12.07
2023-01-25T23:58:49.762Z,12.13
